<?xml version='1.0' encoding='UTF-8'?><gpx version="1.1" creator="JPX - https://github.com/jenetics/jpx" xmlns="http://www.topografix.com/GPX/1/1"><trk><trkseg><trkpt lat="41.851648957834584" lon="12.883909233637308"><ele>456.0</ele><time>2026-04-04T09:08:07Z</time></trkpt><trkpt lat="41.85165452643462" lon="12.884001033660947"><ele>456.0</ele><time>2026-04-04T09:08:36.999Z</time></trkpt><trkpt lat="41.851700258480015" lon="12.884097921985022"><ele>456.0</ele><time>2026-04-04T09:08:38.999Z</time></trkpt><trkpt lat="41.85174657079961" lon="12.884200805887115"><ele>456.0</ele><time>2026-04-04T09:08:40.999Z</time></trkpt><trkpt lat="41.85177377978629" lon="12.884285486736172"><ele>456.0</ele><time>2026-04-04T09:08:42.999Z</time></trkpt><trkpt lat="41.85183196343219" lon="12.88437642632594"><ele>456.0</ele><time>2026-04-04T09:08:46.999Z</time></trkpt><trkpt lat="41.85194757386521" lon="12.884389601527053"><ele>455.85714285714283</ele><time>2026-04-04T09:08:48.999Z</time></trkpt><trkpt lat="41.85200986607526" lon="12.884419257822223"><ele>455.71428571428567</ele><time>2026-04-04T09:08:49.999Z</time></trkpt><trkpt lat="41.852078941547155" lon="12.884461884350811"><ele>455.57142857142856</ele><time>2026-04-04T09:08:50.999Z</time></trkpt><trkpt lat="41.852154116904345" lon="12.884504660191762"><ele>455.42857142857144</ele><time>2026-04-04T09:08:51.999Z</time></trkpt><trkpt lat="41.8522208677554" lon="12.884557322504605"><ele>455.2857142857143</ele><time>2026-04-04T09:08:52.999Z</time></trkpt><trkpt lat="41.85227716674643" lon="12.884607649495164"><ele>455.1428571428571</ele><time>2026-04-04T09:08:53.999Z</time></trkpt><trkpt lat="41.85233352502557" lon="12.884678837165225"><ele>455.0</ele><time>2026-04-04T09:08:54.999Z</time></trkpt><trkpt lat="41.85238665200785" lon="12.884771888272077"><ele>455.0</ele><time>2026-04-04T09:08:55.999Z</time></trkpt><trkpt lat="41.85245685488205" lon="12.884876556695561"><ele>455.0</ele><time>2026-04-04T09:08:56.999Z</time></trkpt><trkpt lat="41.85252623729972" lon="12.884994248959602"><ele>455.0</ele><time>2026-04-04T09:08:57.999Z</time></trkpt><trkpt lat="41.85259878463776" lon="12.885100676417022"><ele>455.0</ele><time>2026-04-04T09:08:58.999Z</time></trkpt><trkpt lat="41.85266537077817" lon="12.885202872936409"><ele>455.0</ele><time>2026-04-04T09:08:59.999Z</time></trkpt><trkpt lat="41.852725686650764" lon="12.88529887197512"><ele>455.49999999999994</ele><time>2026-04-04T09:09:00.999Z</time></trkpt><trkpt lat="41.852786085635984" lon="12.885390305270214"><ele>456.0</ele><time>2026-04-04T09:09:01.999Z</time></trkpt><trkpt lat="41.85284110749046" lon="12.885475316356262"><ele>456.5</ele><time>2026-04-04T09:09:02.999Z</time></trkpt><trkpt lat="41.85289466093592" lon="12.885559203160296"><ele>457.0</ele><time>2026-04-04T09:09:03.999Z</time></trkpt><trkpt lat="41.852943194473525" lon="12.885640195495737"><ele>457.49999999999994</ele><time>2026-04-04T09:09:04.999Z</time></trkpt><trkpt lat="41.85299244276556" lon="12.88572719272644"><ele>458.0</ele><time>2026-04-04T09:09:05.999Z</time></trkpt><trkpt lat="41.85303707701915" lon="12.885825614626128"><ele>458.0</ele><time>2026-04-04T09:09:06.999Z</time></trkpt><trkpt lat="41.853060147157684" lon="12.885928339259854"><ele>457.99999999999994</ele><time>2026-04-04T09:09:07.999Z</time></trkpt><trkpt lat="41.85308811842647" lon="12.88603527562448"><ele>457.99999999999994</ele><time>2026-04-04T09:09:08.999Z</time></trkpt><trkpt lat="41.85317480756339" lon="12.886182722718198"><ele>458.0</ele><time>2026-04-04T09:09:10.999Z</time></trkpt><trkpt lat="41.85325310096912" lon="12.886167339431292"><ele>458.0</ele><time>2026-04-04T09:09:11.999Z</time></trkpt><trkpt lat="41.853344075241644" lon="12.886047719515249"><ele>457.99999999999994</ele><time>2026-04-04T09:09:13.999Z</time></trkpt><trkpt lat="41.85335675868181" lon="12.885957801354285"><ele>458.0</ele><time>2026-04-04T09:09:14.999Z</time></trkpt><trkpt lat="41.85336403049609" lon="12.885872179909743"><ele>458.0</ele><time>2026-04-04T09:09:15.999Z</time></trkpt><trkpt lat="41.853375417424026" lon="12.885785533229585"><ele>458.0</ele><time>2026-04-04T09:09:16.999Z</time></trkpt><trkpt lat="41.85339817423806" lon="12.885680881895675"><ele>457.99999999999994</ele><time>2026-04-04T09:09:17.999Z</time></trkpt><trkpt lat="41.85342794138714" lon="12.885561853942106"><ele>458.0</ele><time>2026-04-04T09:09:18.999Z</time></trkpt><trkpt lat="41.85346517494881" lon="12.885437337935395"><ele>459.79999999999995</ele><time>2026-04-04T09:09:19.999Z</time></trkpt><trkpt lat="41.85348659123227" lon="12.885312333492907"><ele>461.59999999999997</ele><time>2026-04-04T09:09:20.999Z</time></trkpt><trkpt lat="41.85352156017731" lon="12.885176595011467"><ele>463.40000000000003</ele><time>2026-04-04T09:09:21.999Z</time></trkpt><trkpt lat="41.853552711686966" lon="12.885035268487487"><ele>465.20000000000005</ele><time>2026-04-04T09:09:22.999Z</time></trkpt><trkpt lat="41.853590235919334" lon="12.884893916453652"><ele>467.0</ele><time>2026-04-04T09:09:23.999Z</time></trkpt><trkpt lat="41.853672274689025" lon="12.884719847507698"><ele>467.0</ele><time>2026-04-04T09:09:24.999Z</time></trkpt><trkpt lat="41.85371387017389" lon="12.884604521015376"><ele>467.00000000000006</ele><time>2026-04-04T09:09:25.999Z</time></trkpt><trkpt lat="41.85377495583176" lon="12.884472249052006"><ele>467.00000000000006</ele><time>2026-04-04T09:09:26.999Z</time></trkpt><trkpt lat="41.853830871192116" lon="12.88434149196939"><ele>467.0</ele><time>2026-04-04T09:09:27.999Z</time></trkpt><trkpt lat="41.85388469279419" lon="12.884216019422139"><ele>467.0</ele><time>2026-04-04T09:09:28.999Z</time></trkpt><trkpt lat="41.853951620171514" lon="12.884090480787847"><ele>462.6</ele><time>2026-04-04T09:09:29.999Z</time></trkpt><trkpt lat="41.854010561575265" lon="12.883965808192688"><ele>458.20000000000005</ele><time>2026-04-04T09:09:30.999Z</time></trkpt><trkpt lat="41.854073429749164" lon="12.883839712090987"><ele>453.8</ele><time>2026-04-04T09:09:31.999Z</time></trkpt><trkpt lat="41.854115775548344" lon="12.883702962843868"><ele>449.4</ele><time>2026-04-04T09:09:32.999Z</time></trkpt><trkpt lat="41.85415114416677" lon="12.883573319607592"><ele>445.0</ele><time>2026-04-04T09:09:33.999Z</time></trkpt><trkpt lat="41.854185470790014" lon="12.883434624336124"><ele>443.0</ele><time>2026-04-04T09:09:34.999Z</time></trkpt><trkpt lat="41.854233092009345" lon="12.88330010392409"><ele>441.0</ele><time>2026-04-04T09:09:35.999Z</time></trkpt><trkpt lat="41.85429916236028" lon="12.883185128965398"><ele>439.0</ele><time>2026-04-04T09:09:36.999Z</time></trkpt><trkpt lat="41.85438422222858" lon="12.883084186495003"><ele>437.0</ele><time>2026-04-04T09:09:37.999Z</time></trkpt><trkpt lat="41.854472686370485" lon="12.882981725344676"><ele>435.0</ele><time>2026-04-04T09:09:38.999Z</time></trkpt><trkpt lat="41.85455226512346" lon="12.882866479071655"><ele>435.0</ele><time>2026-04-04T09:09:39.999Z</time></trkpt><trkpt lat="41.8546069624946" lon="12.882742577323969"><ele>435.0</ele><time>2026-04-04T09:09:40.999Z</time></trkpt><trkpt lat="41.85464100996549" lon="12.882624848365191"><ele>435.0</ele><time>2026-04-04T09:09:41.999Z</time></trkpt><trkpt lat="41.854673463974414" lon="12.882530742094126"><ele>435.0</ele><time>2026-04-04T09:09:42.999Z</time></trkpt><trkpt lat="41.85479970186124" lon="12.88243453928986"><ele>435.0</ele><time>2026-04-04T09:09:45Z</time></trkpt><trkpt lat="41.85487881125715" lon="12.882409169328072"><ele>434.1666666666667</ele><time>2026-04-04T09:09:46Z</time></trkpt><trkpt lat="41.85496596867245" lon="12.882404344964225"><ele>433.33333333333337</ele><time>2026-04-04T09:09:47Z</time></trkpt><trkpt lat="41.8550466663063" lon="12.882377996812538"><ele>432.5</ele><time>2026-04-04T09:09:48Z</time></trkpt><trkpt lat="41.85513191925654" lon="12.882353842507321"><ele>431.6666666666667</ele><time>2026-04-04T09:09:49Z</time></trkpt><trkpt lat="41.85521899060425" lon="12.88234230099314"><ele>430.83333333333337</ele><time>2026-04-04T09:09:50Z</time></trkpt><trkpt lat="41.855312958416185" lon="12.88232027413476"><ele>430.0</ele><time>2026-04-04T09:09:51Z</time></trkpt><trkpt lat="41.855402087913546" lon="12.882311090424997"><ele>426.8</ele><time>2026-04-04T09:09:52Z</time></trkpt><trkpt lat="41.85549080398273" lon="12.882309726390869"><ele>423.6</ele><time>2026-04-04T09:09:53Z</time></trkpt><trkpt lat="41.85557329999684" lon="12.882328481049234"><ele>420.4</ele><time>2026-04-04T09:09:54Z</time></trkpt><trkpt lat="41.85566041282434" lon="12.882356876531054"><ele>417.2</ele><time>2026-04-04T09:09:55Z</time></trkpt><trkpt lat="41.85574950141653" lon="12.882405888534347"><ele>414.0</ele><time>2026-04-04T09:09:56Z</time></trkpt><trkpt lat="41.85582978407996" lon="12.882465283394914"><ele>414.0</ele><time>2026-04-04T09:09:57Z</time></trkpt><trkpt lat="41.85591344373173" lon="12.882532657431653"><ele>414.0</ele><time>2026-04-04T09:09:58Z</time></trkpt><trkpt lat="41.855995494660874" lon="12.882595422445963"><ele>414.0</ele><time>2026-04-04T09:09:59Z</time></trkpt><trkpt lat="41.85608405544164" lon="12.882632593746346"><ele>414.0</ele><time>2026-04-04T09:10:00Z</time></trkpt><trkpt lat="41.85615919025339" lon="12.88269617110495"><ele>414.0</ele><time>2026-04-04T09:10:01Z</time></trkpt><trkpt lat="41.85624869981048" lon="12.882748622413208"><ele>412.0</ele><time>2026-04-04T09:10:02Z</time></trkpt><trkpt lat="41.85633236423242" lon="12.882796982917053"><ele>410.0</ele><time>2026-04-04T09:10:03Z</time></trkpt><trkpt lat="41.85641665901378" lon="12.882845560092514"><ele>408.0</ele><time>2026-04-04T09:10:04Z</time></trkpt><trkpt lat="41.85650032523079" lon="12.88289088431353"><ele>406.0</ele><time>2026-04-04T09:10:05Z</time></trkpt><trkpt lat="41.85658838572847" lon="12.882932033581065"><ele>404.0</ele><time>2026-04-04T09:10:06Z</time></trkpt><trkpt lat="41.856676690850286" lon="12.882960641668998"><ele>404.0</ele><time>2026-04-04T09:10:07Z</time></trkpt><trkpt lat="41.85676635602284" lon="12.882973056282546"><ele>404.0</ele><time>2026-04-04T09:10:08Z</time></trkpt><trkpt lat="41.856855891863056" lon="12.882967964360818"><ele>404.0</ele><time>2026-04-04T09:10:09Z</time></trkpt><trkpt lat="41.85694174886176" lon="12.882940761137704"><ele>404.0</ele><time>2026-04-04T09:10:10Z</time></trkpt><trkpt lat="41.85701707518644" lon="12.882862330278657"><ele>404.0</ele><time>2026-04-04T09:10:11Z</time></trkpt><trkpt lat="41.85704254787774" lon="12.882740743335688"><ele>402.6</ele><time>2026-04-04T09:10:12Z</time></trkpt><trkpt lat="41.85710418130168" lon="12.882641483708944"><ele>401.2</ele><time>2026-04-04T09:10:13Z</time></trkpt><trkpt lat="41.857153890807055" lon="12.882500379796568"><ele>399.8</ele><time>2026-04-04T09:10:14Z</time></trkpt><trkpt lat="41.85720073752097" lon="12.882402199954381"><ele>398.40000000000003</ele><time>2026-04-04T09:10:15Z</time></trkpt><trkpt lat="41.857256495550935" lon="12.882318297295756"><ele>397.0</ele><time>2026-04-04T09:10:16Z</time></trkpt><trkpt lat="41.85733796472388" lon="12.882210734852857"><ele>397.0</ele><time>2026-04-04T09:10:17Z</time></trkpt><trkpt lat="41.85742502522914" lon="12.882128375790005"><ele>397.0</ele><time>2026-04-04T09:10:18Z</time></trkpt><trkpt lat="41.85750972930582" lon="12.882032598741327"><ele>397.0</ele><time>2026-04-04T09:10:19Z</time></trkpt><trkpt lat="41.85760004747969" lon="12.881941353055531"><ele>397.0</ele><time>2026-04-04T09:10:20Z</time></trkpt><trkpt lat="41.85769672932119" lon="12.881858922944796"><ele>397.0</ele><time>2026-04-04T09:10:21Z</time></trkpt><trkpt lat="41.85779001027102" lon="12.881772536416298"><ele>393.8</ele><time>2026-04-04T09:10:22Z</time></trkpt><trkpt lat="41.85789245097236" lon="12.881685079135362"><ele>390.6</ele><time>2026-04-04T09:10:23Z</time></trkpt><trkpt lat="41.857992418338874" lon="12.881604649628489"><ele>387.40000000000003</ele><time>2026-04-04T09:10:24Z</time></trkpt><trkpt lat="41.85808026441081" lon="12.881544385792182"><ele>384.20000000000005</ele><time>2026-04-04T09:10:25Z</time></trkpt><trkpt lat="41.85816932175648" lon="12.881473436441054"><ele>381.0</ele><time>2026-04-04T09:10:26Z</time></trkpt><trkpt lat="41.85826444934378" lon="12.881420104642704"><ele>381.0</ele><time>2026-04-04T09:10:27Z</time></trkpt><trkpt lat="41.85834316502524" lon="12.881360459326382"><ele>381.0</ele><time>2026-04-04T09:10:28Z</time></trkpt><trkpt lat="41.858418082260634" lon="12.881288420664434"><ele>381.0</ele><time>2026-04-04T09:10:29Z</time></trkpt><trkpt lat="41.85847494699855" lon="12.881212155913289"><ele>381.0</ele><time>2026-04-04T09:10:30Z</time></trkpt><trkpt lat="41.85855434735623" lon="12.881068921440013"><ele>381.0</ele><time>2026-04-04T09:10:32Z</time></trkpt><trkpt lat="41.85859590154062" lon="12.880992710467952"><ele>379.1666666666667</ele><time>2026-04-04T09:10:33Z</time></trkpt><trkpt lat="41.8586298685988" lon="12.880904414484535"><ele>377.3333333333333</ele><time>2026-04-04T09:10:33.999Z</time></trkpt><trkpt lat="41.85867168253453" lon="12.880811921282476"><ele>375.5</ele><time>2026-04-04T09:10:34.999Z</time></trkpt><trkpt lat="41.858722418798976" lon="12.88071645785617"><ele>373.66666666666663</ele><time>2026-04-04T09:10:35.999Z</time></trkpt><trkpt lat="41.858767126626" lon="12.880623545029279"><ele>371.8333333333333</ele><time>2026-04-04T09:10:36.999Z</time></trkpt><trkpt lat="41.85880338461482" lon="12.880519918706879"><ele>370.0</ele><time>2026-04-04T09:10:37.999Z</time></trkpt><trkpt lat="41.85883360308426" lon="12.880404031889427"><ele>370.0</ele><time>2026-04-04T09:10:38.999Z</time></trkpt><trkpt lat="41.8588533505239" lon="12.880286283373193"><ele>370.0</ele><time>2026-04-04T09:10:39.999Z</time></trkpt><trkpt lat="41.85887684669767" lon="12.880172335948004"><ele>370.0</ele><time>2026-04-04T09:10:40.999Z</time></trkpt><trkpt lat="41.858897893806024" lon="12.880051144541094"><ele>370.0</ele><time>2026-04-04T09:10:41.999Z</time></trkpt><trkpt lat="41.858916847435495" lon="12.879922274850154"><ele>370.0</ele><time>2026-04-04T09:10:42.999Z</time></trkpt><trkpt lat="41.85894304591284" lon="12.879791812122786"><ele>367.6</ele><time>2026-04-04T09:10:43.999Z</time></trkpt><trkpt lat="41.858969726885114" lon="12.879654718193986"><ele>365.2</ele><time>2026-04-04T09:10:44.999Z</time></trkpt><trkpt lat="41.85899811886455" lon="12.879515877666563"><ele>362.79999999999995</ele><time>2026-04-04T09:10:45.999Z</time></trkpt><trkpt lat="41.859038082364975" lon="12.87938648332002"><ele>360.4</ele><time>2026-04-04T09:10:46.999Z</time></trkpt><trkpt lat="41.85909969097573" lon="12.879266881806078"><ele>358.0</ele><time>2026-04-04T09:10:47.999Z</time></trkpt><trkpt lat="41.859169321828894" lon="12.879144302603056"><ele>357.0</ele><time>2026-04-04T09:10:48.999Z</time></trkpt><trkpt lat="41.8592486024925" lon="12.879019079637153"><ele>356.0</ele><time>2026-04-04T09:10:49.999Z</time></trkpt><trkpt lat="41.859333765387056" lon="12.878902620636559"><ele>355.0</ele><time>2026-04-04T09:10:50.999Z</time></trkpt><trkpt lat="41.859417747742455" lon="12.878780048066474"><ele>354.0</ele><time>2026-04-04T09:10:51.999Z</time></trkpt><trkpt lat="41.85949556831005" lon="12.878641634415095"><ele>354.0</ele><time>2026-04-04T09:10:52.999Z</time></trkpt><trkpt lat="41.85957043091243" lon="12.878506128209027"><ele>354.0</ele><time>2026-04-04T09:10:53.999Z</time></trkpt><trkpt lat="41.859645522319624" lon="12.878377466071502"><ele>354.0</ele><time>2026-04-04T09:10:54.999Z</time></trkpt><trkpt lat="41.85972092256955" lon="12.878250059905154"><ele>354.0</ele><time>2026-04-04T09:10:55.999Z</time></trkpt><trkpt lat="41.8597950057085" lon="12.878125936285084"><ele>354.0</ele><time>2026-04-04T09:10:56.999Z</time></trkpt><trkpt lat="41.8598697647068" lon="12.878009456130755"><ele>354.0</ele><time>2026-04-04T09:10:57.999Z</time></trkpt><trkpt lat="41.85994443302406" lon="12.877891689599304"><ele>354.0</ele><time>2026-04-04T09:10:58.999Z</time></trkpt><trkpt lat="41.86002034481516" lon="12.877788226675056"><ele>354.0</ele><time>2026-04-04T09:10:59.999Z</time></trkpt><trkpt lat="41.86009729634226" lon="12.877706043421664"><ele>354.0</ele><time>2026-04-04T09:11:00.999Z</time></trkpt><trkpt lat="41.86017569036976" lon="12.877638776362248"><ele>353.2</ele><time>2026-04-04T09:11:01.999Z</time></trkpt><trkpt lat="41.860276082471565" lon="12.877601815038492"><ele>352.4</ele><time>2026-04-04T09:11:02.999Z</time></trkpt><trkpt lat="41.86038011645838" lon="12.877598187242981"><ele>351.6</ele><time>2026-04-04T09:11:03.999Z</time></trkpt><trkpt lat="41.86048977698674" lon="12.877607925052597"><ele>350.8</ele><time>2026-04-04T09:11:04.999Z</time></trkpt><trkpt lat="41.86060270578092" lon="12.877645623937946"><ele>350.0</ele><time>2026-04-04T09:11:05.999Z</time></trkpt><trkpt lat="41.860714931071996" lon="12.877675701057717"><ele>350.0</ele><time>2026-04-04T09:11:06.999Z</time></trkpt><trkpt lat="41.860833577999664" lon="12.87772836504074"><ele>350.0</ele><time>2026-04-04T09:11:07.999Z</time></trkpt><trkpt lat="41.86094793184453" lon="12.877785177828061"><ele>350.0</ele><time>2026-04-04T09:11:08.999Z</time></trkpt><trkpt lat="41.86105617931583" lon="12.877825602324426"><ele>350.0</ele><time>2026-04-04T09:11:09.999Z</time></trkpt><trkpt lat="41.86115511178802" lon="12.877858569454178"><ele>347.6666666666667</ele><time>2026-04-04T09:11:10.999Z</time></trkpt><trkpt lat="41.86124909978955" lon="12.877888223026932"><ele>345.33333333333337</ele><time>2026-04-04T09:11:11.999Z</time></trkpt><trkpt lat="41.86133733303204" lon="12.877912732339999"><ele>343.0</ele><time>2026-04-04T09:11:12.999Z</time></trkpt><trkpt lat="41.861418423162625" lon="12.877934733380537"><ele>340.6666666666667</ele><time>2026-04-04T09:11:13.999Z</time></trkpt><trkpt lat="41.86149059245592" lon="12.877946669156902"><ele>338.3333333333333</ele><time>2026-04-04T09:11:14.999Z</time></trkpt><trkpt lat="41.861566441476306" lon="12.877956979027095"><ele>336.0</ele><time>2026-04-04T09:11:15.999Z</time></trkpt><trkpt lat="41.86164754973265" lon="12.877953990447883"><ele>336.0</ele><time>2026-04-04T09:11:16.999Z</time></trkpt><trkpt lat="41.86173209156638" lon="12.87792769103753"><ele>336.0</ele><time>2026-04-04T09:11:17.999Z</time></trkpt><trkpt lat="41.861817400198476" lon="12.87787442627993"><ele>336.0</ele><time>2026-04-04T09:11:18.999Z</time></trkpt><trkpt lat="41.861902210204754" lon="12.877814556036858"><ele>336.0</ele><time>2026-04-04T09:11:19.999Z</time></trkpt><trkpt lat="41.86199570323621" lon="12.877760530402613"><ele>336.0</ele><time>2026-04-04T09:11:20.999Z</time></trkpt><trkpt lat="41.862099570985826" lon="12.877720082607302"><ele>337.20000000000005</ele><time>2026-04-04T09:11:21.999Z</time></trkpt><trkpt lat="41.86220895275064" lon="12.877697009035527"><ele>338.40000000000003</ele><time>2026-04-04T09:11:22.999Z</time></trkpt><trkpt lat="41.86231924477255" lon="12.877682705347487"><ele>339.6</ele><time>2026-04-04T09:11:23.999Z</time></trkpt><trkpt lat="41.86242716581618" lon="12.877666569043278"><ele>340.8</ele><time>2026-04-04T09:11:24.999Z</time></trkpt><trkpt lat="41.862539960695436" lon="12.877644991156977"><ele>342.0</ele><time>2026-04-04T09:11:25.999Z</time></trkpt><trkpt lat="41.862646278242096" lon="12.877618229244325"><ele>345.8</ele><time>2026-04-04T09:11:26.999Z</time></trkpt><trkpt lat="41.86274182373895" lon="12.877579989264557"><ele>349.6</ele><time>2026-04-04T09:11:27.999Z</time></trkpt><trkpt lat="41.862822876721815" lon="12.877529992720522"><ele>353.40000000000003</ele><time>2026-04-04T09:11:28.999Z</time></trkpt><trkpt lat="41.862895643384505" lon="12.877458517805753"><ele>357.20000000000005</ele><time>2026-04-04T09:11:29.999Z</time></trkpt><trkpt lat="41.862955609154696" lon="12.877376059407112"><ele>361.0</ele><time>2026-04-04T09:11:30.999Z</time></trkpt><trkpt lat="41.86301788095952" lon="12.877291074201727"><ele>361.0</ele><time>2026-04-04T09:11:31.999Z</time></trkpt><trkpt lat="41.863070515298034" lon="12.87720248894367"><ele>361.0</ele><time>2026-04-04T09:11:32.999Z</time></trkpt><trkpt lat="41.86314038169368" lon="12.877126442102298"><ele>361.0</ele><time>2026-04-04T09:11:33.999Z</time></trkpt><trkpt lat="41.863185425879536" lon="12.877011231733462"><ele>361.0</ele><time>2026-04-04T09:11:34.999Z</time></trkpt><trkpt lat="41.86323748418643" lon="12.876897939500724"><ele>361.0</ele><time>2026-04-04T09:11:35.999Z</time></trkpt><trkpt lat="41.86328150530332" lon="12.87677208009047"><ele>360.20000000000005</ele><time>2026-04-04T09:11:36.999Z</time></trkpt><trkpt lat="41.86330083723113" lon="12.876664724105591"><ele>359.40000000000003</ele><time>2026-04-04T09:11:37.999Z</time></trkpt><trkpt lat="41.863364235534384" lon="12.876531973240166"><ele>358.6</ele><time>2026-04-04T09:11:38.999Z</time></trkpt><trkpt lat="41.86341287764673" lon="12.876413145789707"><ele>357.8</ele><time>2026-04-04T09:11:39.999Z</time></trkpt><trkpt lat="41.863458842613994" lon="12.876295962659515"><ele>357.0</ele><time>2026-04-04T09:11:40.999Z</time></trkpt><trkpt lat="41.86350125902621" lon="12.876186904724284"><ele>359.0</ele><time>2026-04-04T09:11:41.999Z</time></trkpt><trkpt lat="41.863539631615936" lon="12.876103194710046"><ele>361.0</ele><time>2026-04-04T09:11:42.999Z</time></trkpt><trkpt lat="41.86357829654316" lon="12.87603356077575"><ele>363.0</ele><time>2026-04-04T09:11:43.999Z</time></trkpt><trkpt lat="41.86366738269679" lon="12.875972507457096"><ele>365.0</ele><time>2026-04-04T09:11:45.999Z</time></trkpt><trkpt lat="41.86376423628729" lon="12.875994784657996"><ele>367.0</ele><time>2026-04-04T09:11:47.999Z</time></trkpt><trkpt lat="41.86386362635677" lon="12.876096745769669"><ele>367.0</ele><time>2026-04-04T09:11:49.999Z</time></trkpt><trkpt lat="41.863927077640994" lon="12.876164313004438"><ele>367.0</ele><time>2026-04-04T09:11:51Z</time></trkpt><trkpt lat="41.863986795960095" lon="12.876228324204721"><ele>367.0</ele><time>2026-04-04T09:11:52Z</time></trkpt><trkpt lat="41.86406899629432" lon="12.876294492243169"><ele>367.0</ele><time>2026-04-04T09:11:53Z</time></trkpt><trkpt lat="41.86413875727888" lon="12.876351241543693"><ele>367.0</ele><time>2026-04-04T09:11:54Z</time></trkpt><trkpt lat="41.864206433445105" lon="12.876413889059638"><ele>367.0</ele><time>2026-04-04T09:11:55Z</time></trkpt><trkpt lat="41.86427279164682" lon="12.87649276196204"><ele>368.20000000000005</ele><time>2026-04-04T09:11:56Z</time></trkpt><trkpt lat="41.86433169902718" lon="12.876580049515637"><ele>369.4</ele><time>2026-04-04T09:11:57Z</time></trkpt><trkpt lat="41.864383788421385" lon="12.876666859257421"><ele>370.6</ele><time>2026-04-04T09:11:58Z</time></trkpt><trkpt lat="41.86442308988218" lon="12.876780335614207"><ele>371.79999999999995</ele><time>2026-04-04T09:11:59Z</time></trkpt><trkpt lat="41.8644626525216" lon="12.87690059393351"><ele>373.0</ele><time>2026-04-04T09:12:00Z</time></trkpt><trkpt lat="41.8645019653011" lon="12.877016140094257"><ele>375.2</ele><time>2026-04-04T09:12:01Z</time></trkpt><trkpt lat="41.86454515800675" lon="12.877134998236965"><ele>377.4</ele><time>2026-04-04T09:12:02Z</time></trkpt><trkpt lat="41.86459197515001" lon="12.877240143642531"><ele>379.59999999999997</ele><time>2026-04-04T09:12:03Z</time></trkpt><trkpt lat="41.86464978356132" lon="12.87734569215684"><ele>381.79999999999995</ele><time>2026-04-04T09:12:04Z</time></trkpt><trkpt lat="41.864719280591295" lon="12.877443225202006"><ele>384.0</ele><time>2026-04-04T09:12:05Z</time></trkpt><trkpt lat="41.86478657020909" lon="12.877535175625408"><ele>386.0</ele><time>2026-04-04T09:12:06Z</time></trkpt><trkpt lat="41.86486147350019" lon="12.877613956902074"><ele>388.0</ele><time>2026-04-04T09:12:07Z</time></trkpt><trkpt lat="41.86491752180495" lon="12.877693976952308"><ele>390.0</ele><time>2026-04-04T09:12:08Z</time></trkpt><trkpt lat="41.86501778873832" lon="12.877754283727688"><ele>392.0</ele><time>2026-04-04T09:12:09Z</time></trkpt><trkpt lat="41.8651032142685" lon="12.877834267925886"><ele>394.0</ele><time>2026-04-04T09:12:10Z</time></trkpt><trkpt lat="41.865194296621496" lon="12.87790224131117"><ele>394.4</ele><time>2026-04-04T09:12:11Z</time></trkpt><trkpt lat="41.86527509994095" lon="12.877968765776806"><ele>394.79999999999995</ele><time>2026-04-04T09:12:12Z</time></trkpt><trkpt lat="41.86535805534064" lon="12.878033506067405"><ele>395.20000000000005</ele><time>2026-04-04T09:12:13Z</time></trkpt><trkpt lat="41.865440546114364" lon="12.878100021406048"><ele>395.6</ele><time>2026-04-04T09:12:14Z</time></trkpt><trkpt lat="41.865515336483355" lon="12.878166135205877"><ele>396.0</ele><time>2026-04-04T09:12:15Z</time></trkpt><trkpt lat="41.8655927267363" lon="12.8782359552113"><ele>396.0</ele><time>2026-04-04T09:12:16Z</time></trkpt><trkpt lat="41.865659669000124" lon="12.878305759426869"><ele>396.0</ele><time>2026-04-04T09:12:17Z</time></trkpt><trkpt lat="41.86570338381001" lon="12.878406624631195"><ele>396.0</ele><time>2026-04-04T09:12:18Z</time></trkpt><trkpt lat="41.865757061830564" lon="12.878489489780089"><ele>396.0</ele><time>2026-04-04T09:12:19Z</time></trkpt><trkpt lat="41.86575846286519" lon="12.878604305425085"><ele>396.0</ele><time>2026-04-04T09:12:20Z</time></trkpt><trkpt lat="41.865788285396384" lon="12.878705418357097"><ele>396.0</ele><time>2026-04-04T09:12:21Z</time></trkpt><trkpt lat="41.86582040800881" lon="12.87881158083793"><ele>397.0</ele><time>2026-04-04T09:12:22Z</time></trkpt><trkpt lat="41.8658546995053" lon="12.878920932604611"><ele>398.0</ele><time>2026-04-04T09:12:23Z</time></trkpt><trkpt lat="41.865895896224686" lon="12.879031214755488"><ele>399.0</ele><time>2026-04-04T09:12:24Z</time></trkpt><trkpt lat="41.86594731505804" lon="12.879125546877315"><ele>400.0</ele><time>2026-04-04T09:12:25Z</time></trkpt><trkpt lat="41.86598886960623" lon="12.879214120783612"><ele>401.0</ele><time>2026-04-04T09:12:26Z</time></trkpt><trkpt lat="41.86604759341755" lon="12.879291661047919"><ele>402.0</ele><time>2026-04-04T09:12:27Z</time></trkpt><trkpt lat="41.86611770252599" lon="12.87934658288896"><ele>403.5</ele><time>2026-04-04T09:12:28Z</time></trkpt><trkpt lat="41.866198435088705" lon="12.879388185858767"><ele>405.0</ele><time>2026-04-04T09:12:29Z</time></trkpt><trkpt lat="41.86628249961044" lon="12.879433191221812"><ele>406.5</ele><time>2026-04-04T09:12:30Z</time></trkpt><trkpt lat="41.8663609074807" lon="12.879488181816612"><ele>408.0</ele><time>2026-04-04T09:12:31Z</time></trkpt><trkpt lat="41.866447076151" lon="12.87953778187266"><ele>409.5</ele><time>2026-04-04T09:12:32Z</time></trkpt><trkpt lat="41.86652283127203" lon="12.879599914828987"><ele>411.0</ele><time>2026-04-04T09:12:33Z</time></trkpt><trkpt lat="41.86660576735445" lon="12.879663881989575"><ele>411.0</ele><time>2026-04-04T09:12:34Z</time></trkpt><trkpt lat="41.86666867473476" lon="12.879733065746558"><ele>411.0</ele><time>2026-04-04T09:12:34.999Z</time></trkpt><trkpt lat="41.86675279816225" lon="12.87980651578239"><ele>411.0</ele><time>2026-04-04T09:12:35.999Z</time></trkpt><trkpt lat="41.86682808867565" lon="12.879884390739058"><ele>411.0</ele><time>2026-04-04T09:12:36.999Z</time></trkpt><trkpt lat="41.86690900935613" lon="12.879970719722962"><ele>411.0</ele><time>2026-04-04T09:12:37.999Z</time></trkpt><trkpt lat="41.86699831113522" lon="12.880044202863767"><ele>412.6</ele><time>2026-04-04T09:12:38.999Z</time></trkpt><trkpt lat="41.86707641481546" lon="12.88012664272043"><ele>414.20000000000005</ele><time>2026-04-04T09:12:39.999Z</time></trkpt><trkpt lat="41.86715170776883" lon="12.880212087842128"><ele>415.79999999999995</ele><time>2026-04-04T09:12:40.999Z</time></trkpt><trkpt lat="41.86722711709354" lon="12.880285877327303"><ele>417.4</ele><time>2026-04-04T09:12:41.999Z</time></trkpt><trkpt lat="41.86730483951164" lon="12.880352016439563"><ele>419.0</ele><time>2026-04-04T09:12:42.999Z</time></trkpt><trkpt lat="41.867352733901505" lon="12.880440149335826"><ele>419.0</ele><time>2026-04-04T09:12:43.999Z</time></trkpt><trkpt lat="41.86742047832215" lon="12.880476456067766"><ele>419.0</ele><time>2026-04-04T09:12:44.999Z</time></trkpt><trkpt lat="41.867485613802856" lon="12.880532406375785"><ele>419.0</ele><time>2026-04-04T09:12:45.999Z</time></trkpt><trkpt lat="41.867600885688375" lon="12.880606079982073"><ele>419.0</ele><time>2026-04-04T09:12:47.999Z</time></trkpt><trkpt lat="41.867714429241026" lon="12.880618130366038"><ele>419.0</ele><time>2026-04-04T09:12:49.999Z</time></trkpt><trkpt lat="41.86783376005865" lon="12.880637378989924"><ele>416.3333333333333</ele><time>2026-04-04T09:12:51.999Z</time></trkpt><trkpt lat="41.867898865984294" lon="12.880651114089563"><ele>413.66666666666663</ele><time>2026-04-04T09:12:52.999Z</time></trkpt><trkpt lat="41.867974355212716" lon="12.880657887131624"><ele>411.0</ele><time>2026-04-04T09:12:53.999Z</time></trkpt><trkpt lat="41.86804944960672" lon="12.880672440790763"><ele>408.33333333333337</ele><time>2026-04-04T09:12:54.999Z</time></trkpt><trkpt lat="41.868128974028636" lon="12.880684522570967"><ele>405.6666666666667</ele><time>2026-04-04T09:12:55.999Z</time></trkpt><trkpt lat="41.8682111776575" lon="12.880721458516033"><ele>403.0</ele><time>2026-04-04T09:12:56.999Z</time></trkpt><trkpt lat="41.86828843931529" lon="12.880759940966179"><ele>403.00000000000006</ele><time>2026-04-04T09:12:57.999Z</time></trkpt><trkpt lat="41.86835992029559" lon="12.880805207271022"><ele>403.0</ele><time>2026-04-04T09:12:58.999Z</time></trkpt><trkpt lat="41.86844380989241" lon="12.880845774302115"><ele>403.0</ele><time>2026-04-04T09:12:59.999Z</time></trkpt><trkpt lat="41.86852451149794" lon="12.880903384470754"><ele>403.0</ele><time>2026-04-04T09:13:00.999Z</time></trkpt><trkpt lat="41.86858944430946" lon="12.880978441106931"><ele>403.00000000000006</ele><time>2026-04-04T09:13:01.999Z</time></trkpt><trkpt lat="41.86865287370461" lon="12.881053651855813"><ele>403.0</ele><time>2026-04-04T09:13:02.999Z</time></trkpt><trkpt lat="41.868704874107614" lon="12.881145266389623"><ele>402.8571428571429</ele><time>2026-04-04T09:13:03.999Z</time></trkpt><trkpt lat="41.86877473946099" lon="12.881202372967254"><ele>402.71428571428567</ele><time>2026-04-04T09:13:04.999Z</time></trkpt><trkpt lat="41.86883276055337" lon="12.881266405505496"><ele>402.57142857142856</ele><time>2026-04-04T09:13:05.999Z</time></trkpt><trkpt lat="41.86888831276856" lon="12.881311881307116"><ele>402.42857142857144</ele><time>2026-04-04T09:13:06.999Z</time></trkpt><trkpt lat="41.86894923579489" lon="12.881347960172029"><ele>402.28571428571433</ele><time>2026-04-04T09:13:07.999Z</time></trkpt><trkpt lat="41.86901695574067" lon="12.881368123665531"><ele>402.1428571428571</ele><time>2026-04-04T09:13:08.999Z</time></trkpt><trkpt lat="41.86908041924459" lon="12.881366710727042"><ele>402.0</ele><time>2026-04-04T09:13:09.999Z</time></trkpt><trkpt lat="41.86914651109181" lon="12.881341381569316"><ele>402.0</ele><time>2026-04-04T09:13:10.999Z</time></trkpt><trkpt lat="41.869225745798595" lon="12.881300647274017"><ele>402.0</ele><time>2026-04-04T09:13:11.999Z</time></trkpt><trkpt lat="41.86930026713624" lon="12.88124895645979"><ele>402.0</ele><time>2026-04-04T09:13:12.999Z</time></trkpt><trkpt lat="41.86936985136606" lon="12.881189598919397"><ele>402.0</ele><time>2026-04-04T09:13:13.999Z</time></trkpt><trkpt lat="41.86942891932415" lon="12.881135160792162"><ele>402.0</ele><time>2026-04-04T09:13:14.999Z</time></trkpt><trkpt lat="41.86948809478562" lon="12.881089853895904"><ele>402.0</ele><time>2026-04-04T09:13:15.999Z</time></trkpt><trkpt lat="41.86956422924954" lon="12.881057566923166"><ele>401.2857142857143</ele><time>2026-04-04T09:13:16.999Z</time></trkpt><trkpt lat="41.86963746307666" lon="12.881039916267667"><ele>400.5714285714286</ele><time>2026-04-04T09:13:17.999Z</time></trkpt><trkpt lat="41.86970521371884" lon="12.881030570120405"><ele>399.8571428571429</ele><time>2026-04-04T09:13:18.999Z</time></trkpt><trkpt lat="41.86977800022071" lon="12.88102084436747"><ele>399.1428571428571</ele><time>2026-04-04T09:13:19.999Z</time></trkpt><trkpt lat="41.86985181025735" lon="12.881009668342822"><ele>398.42857142857144</ele><time>2026-04-04T09:13:20.999Z</time></trkpt><trkpt lat="41.86992525186004" lon="12.880991367354957"><ele>397.7142857142857</ele><time>2026-04-04T09:13:21.999Z</time></trkpt><trkpt lat="41.86999989457815" lon="12.880949288468802"><ele>397.0</ele><time>2026-04-04T09:13:22.999Z</time></trkpt><trkpt lat="41.87007725008354" lon="12.880890326020442"><ele>400.83333333333337</ele><time>2026-04-04T09:13:23.999Z</time></trkpt><trkpt lat="41.8701540830887" lon="12.880832141352917"><ele>404.6666666666667</ele><time>2026-04-04T09:13:24.999Z</time></trkpt><trkpt lat="41.87023016165869" lon="12.880785331292325"><ele>408.5</ele><time>2026-04-04T09:13:25.999Z</time></trkpt><trkpt lat="41.87030786117162" lon="12.880745529344285"><ele>412.33333333333337</ele><time>2026-04-04T09:13:26.999Z</time></trkpt><trkpt lat="41.8703785384757" lon="12.88072392206216"><ele>416.1666666666667</ele><time>2026-04-04T09:13:27.999Z</time></trkpt><trkpt lat="41.87044962791132" lon="12.880694106511006"><ele>420.0</ele><time>2026-04-04T09:13:28.999Z</time></trkpt><trkpt lat="41.870521400266725" lon="12.880660260458368"><ele>420.0</ele><time>2026-04-04T09:13:29.999Z</time></trkpt><trkpt lat="41.8705817320994" lon="12.88060728506663"><ele>420.0</ele><time>2026-04-04T09:13:30.999Z</time></trkpt><trkpt lat="41.87064598339098" lon="12.880551618129232"><ele>420.0</ele><time>2026-04-04T09:13:31.999Z</time></trkpt><trkpt lat="41.870711548504914" lon="12.880490856159875"><ele>420.0</ele><time>2026-04-04T09:13:32.999Z</time></trkpt><trkpt lat="41.87077814290476" lon="12.880426976779221"><ele>420.0</ele><time>2026-04-04T09:13:33.999Z</time></trkpt><trkpt lat="41.8708460616836" lon="12.880361736411528"><ele>420.0</ele><time>2026-04-04T09:13:34.999Z</time></trkpt><trkpt lat="41.87089918906033" lon="12.88029887374692"><ele>421.1666666666667</ele><time>2026-04-04T09:13:35.999Z</time></trkpt><trkpt lat="41.870966615817984" lon="12.880224402888906"><ele>422.33333333333337</ele><time>2026-04-04T09:13:36.999Z</time></trkpt><trkpt lat="41.87103889919758" lon="12.880152740442124"><ele>423.5</ele><time>2026-04-04T09:13:37.999Z</time></trkpt><trkpt lat="41.87111262620076" lon="12.880091798695787"><ele>424.6666666666667</ele><time>2026-04-04T09:13:38.999Z</time></trkpt><trkpt lat="41.871187418819886" lon="12.880034499666799"><ele>425.83333333333337</ele><time>2026-04-04T09:13:39.999Z</time></trkpt><trkpt lat="41.87126336629617" lon="12.879977618988903"><ele>427.0</ele><time>2026-04-04T09:13:40.999Z</time></trkpt><trkpt lat="41.871340494295346" lon="12.879928648535113"><ele>427.00000000000006</ele><time>2026-04-04T09:13:41.999Z</time></trkpt><trkpt lat="41.871415773050046" lon="12.879872921440963"><ele>427.0</ele><time>2026-04-04T09:13:42.999Z</time></trkpt><trkpt lat="41.87147603732746" lon="12.879814702292572"><ele>427.0</ele><time>2026-04-04T09:13:43.999Z</time></trkpt><trkpt lat="41.87151245422707" lon="12.879736927607368"><ele>427.0</ele><time>2026-04-04T09:13:44.999Z</time></trkpt><trkpt lat="41.87153593517143" lon="12.879563429451922"><ele>427.00000000000006</ele><time>2026-04-04T09:13:46.999Z</time></trkpt><trkpt lat="41.871552482939066" lon="12.879458404951306"><ele>427.0</ele><time>2026-04-04T09:13:47.999Z</time></trkpt><trkpt lat="41.87157240565116" lon="12.879351343616053"><ele>426.83333333333337</ele><time>2026-04-04T09:13:48.999Z</time></trkpt><trkpt lat="41.87161531078099" lon="12.879251246103188"><ele>426.6666666666667</ele><time>2026-04-04T09:13:49.999Z</time></trkpt><trkpt lat="41.871669135876814" lon="12.879171126471382"><ele>426.5</ele><time>2026-04-04T09:13:50.999Z</time></trkpt><trkpt lat="41.87172853502003" lon="12.879104106171907"><ele>426.33333333333337</ele><time>2026-04-04T09:13:51.999Z</time></trkpt><trkpt lat="41.87178879489304" lon="12.879040659136272"><ele>426.1666666666667</ele><time>2026-04-04T09:13:52.999Z</time></trkpt><trkpt lat="41.87184894302685" lon="12.878975777437457"><ele>426.0</ele><time>2026-04-04T09:13:53.999Z</time></trkpt><trkpt lat="41.871907184933754" lon="12.87892570315386"><ele>426.0</ele><time>2026-04-04T09:13:54.999Z</time></trkpt><trkpt lat="41.87196539626505" lon="12.878871757154274"><ele>426.0</ele><time>2026-04-04T09:13:55.999Z</time></trkpt><trkpt lat="41.872036064912464" lon="12.878829458892726"><ele>426.0</ele><time>2026-04-04T09:13:57Z</time></trkpt><trkpt lat="41.87212011668357" lon="12.878814982292331"><ele>426.0</ele><time>2026-04-04T09:13:58Z</time></trkpt><trkpt lat="41.87219283879485" lon="12.878771487578334"><ele>426.0</ele><time>2026-04-04T09:13:59Z</time></trkpt><trkpt lat="41.87226635613396" lon="12.878769399502724"><ele>426.0</ele><time>2026-04-04T09:14:00Z</time></trkpt><trkpt lat="41.87235024023531" lon="12.878695283014816"><ele>426.0</ele><time>2026-04-04T09:14:02Z</time></trkpt><trkpt lat="41.87242049783402" lon="12.878565841390373"><ele>426.0</ele><time>2026-04-04T09:14:04Z</time></trkpt><trkpt lat="41.87246722214976" lon="12.878494929028932"><ele>426.0</ele><time>2026-04-04T09:14:05Z</time></trkpt><trkpt lat="41.87250417662714" lon="12.878418805190766"><ele>426.0</ele><time>2026-04-04T09:14:06Z</time></trkpt><trkpt lat="41.87253828189763" lon="12.878335243570461"><ele>426.0</ele><time>2026-04-04T09:14:07Z</time></trkpt><trkpt lat="41.87256100245688" lon="12.8782558938627"><ele>426.0</ele><time>2026-04-04T09:14:08Z</time></trkpt><trkpt lat="41.87254329027183" lon="12.878124953280313"><ele>427.20000000000005</ele><time>2026-04-04T09:14:10Z</time></trkpt><trkpt lat="41.87254745197864" lon="12.877977646732331"><ele>428.40000000000003</ele><time>2026-04-04T09:14:12Z</time></trkpt><trkpt lat="41.87263267424907" lon="12.877862808020952"><ele>429.6</ele><time>2026-04-04T09:14:14Z</time></trkpt><trkpt lat="41.872740547000866" lon="12.877759722976753"><ele>430.8</ele><time>2026-04-04T09:14:16Z</time></trkpt><trkpt lat="41.872784109536475" lon="12.877680650484612"><ele>432.0</ele><time>2026-04-04T09:14:17Z</time></trkpt><trkpt lat="41.87281015096699" lon="12.877590322690386"><ele>429.6</ele><time>2026-04-04T09:14:18Z</time></trkpt><trkpt lat="41.872841706103515" lon="12.877504656529528"><ele>427.20000000000005</ele><time>2026-04-04T09:14:19Z</time></trkpt><trkpt lat="41.87288439497955" lon="12.877409808130077"><ele>424.8</ele><time>2026-04-04T09:14:20Z</time></trkpt><trkpt lat="41.87293903093796" lon="12.877283893008704"><ele>422.4</ele><time>2026-04-04T09:14:21Z</time></trkpt><trkpt lat="41.872998310902716" lon="12.87715608012332"><ele>420.0</ele><time>2026-04-04T09:14:22Z</time></trkpt><trkpt lat="41.87305564483705" lon="12.877020617926089"><ele>420.0</ele><time>2026-04-04T09:14:23Z</time></trkpt><trkpt lat="41.873113946349775" lon="12.87689406508275"><ele>420.0</ele><time>2026-04-04T09:14:24Z</time></trkpt><trkpt lat="41.8731727412535" lon="12.876763258367859"><ele>420.0</ele><time>2026-04-04T09:14:25Z</time></trkpt><trkpt lat="41.87322889112541" lon="12.876635286072393"><ele>420.0</ele><time>2026-04-04T09:14:26Z</time></trkpt><trkpt lat="41.873284825848934" lon="12.876519462643477"><ele>420.0</ele><time>2026-04-04T09:14:27Z</time></trkpt><trkpt lat="41.87334229072345" lon="12.87640793894155"><ele>421.2</ele><time>2026-04-04T09:14:28Z</time></trkpt><trkpt lat="41.87341664330999" lon="12.876314040091602"><ele>422.4</ele><time>2026-04-04T09:14:29Z</time></trkpt><trkpt lat="41.87348299662518" lon="12.87621538984323"><ele>423.6</ele><time>2026-04-04T09:14:30Z</time></trkpt><trkpt lat="41.873554211268385" lon="12.876112515325218"><ele>424.8</ele><time>2026-04-04T09:14:31Z</time></trkpt><trkpt lat="41.873626848612815" lon="12.876009407800579"><ele>426.0</ele><time>2026-04-04T09:14:32Z</time></trkpt><trkpt lat="41.87370160042445" lon="12.875904370285484"><ele>423.6</ele><time>2026-04-04T09:14:33Z</time></trkpt><trkpt lat="41.87377288396279" lon="12.875795346224761"><ele>421.20000000000005</ele><time>2026-04-04T09:14:34Z</time></trkpt><trkpt lat="41.8738464167341" lon="12.875684972629497"><ele>418.79999999999995</ele><time>2026-04-04T09:14:35Z</time></trkpt><trkpt lat="41.873918952196" lon="12.875569677150917"><ele>416.4</ele><time>2026-04-04T09:14:36Z</time></trkpt><trkpt lat="41.87399490704462" lon="12.875456024537058"><ele>414.0</ele><time>2026-04-04T09:14:36.999Z</time></trkpt><trkpt lat="41.87406276454966" lon="12.87534947132713"><ele>414.0</ele><time>2026-04-04T09:14:37.999Z</time></trkpt><trkpt lat="41.87413204757281" lon="12.875260976110807"><ele>414.0</ele><time>2026-04-04T09:14:38.999Z</time></trkpt><trkpt lat="41.87419945848923" lon="12.875180152039539"><ele>414.0</ele><time>2026-04-04T09:14:39.999Z</time></trkpt><trkpt lat="41.87426457170676" lon="12.875096853941853"><ele>414.0</ele><time>2026-04-04T09:14:40.999Z</time></trkpt><trkpt lat="41.874327056273316" lon="12.87499087199156"><ele>414.0</ele><time>2026-04-04T09:14:41.999Z</time></trkpt><trkpt lat="41.87436131645452" lon="12.874890402207386"><ele>415.0</ele><time>2026-04-04T09:14:42.999Z</time></trkpt><trkpt lat="41.874397465004606" lon="12.874780824735181"><ele>416.0</ele><time>2026-04-04T09:14:43.999Z</time></trkpt><trkpt lat="41.87443883483807" lon="12.874665547375823"><ele>417.0</ele><time>2026-04-04T09:14:44.999Z</time></trkpt><trkpt lat="41.87448656934043" lon="12.874545869044617"><ele>418.0</ele><time>2026-04-04T09:14:45.999Z</time></trkpt><trkpt lat="41.87453584938943" lon="12.874427178837424"><ele>419.0</ele><time>2026-04-04T09:14:46.999Z</time></trkpt><trkpt lat="41.8745872523071" lon="12.874315869587988"><ele>415.79999999999995</ele><time>2026-04-04T09:14:47.999Z</time></trkpt><trkpt lat="41.87464103923339" lon="12.874192077974794"><ele>412.59999999999997</ele><time>2026-04-04T09:14:48.999Z</time></trkpt><trkpt lat="41.874683323933496" lon="12.874071905837289"><ele>409.4</ele><time>2026-04-04T09:14:49.999Z</time></trkpt><trkpt lat="41.8747316831916" lon="12.873935017250451"><ele>406.2</ele><time>2026-04-04T09:14:50.999Z</time></trkpt><trkpt lat="41.874772765477786" lon="12.873816910445496"><ele>403.0</ele><time>2026-04-04T09:14:51.999Z</time></trkpt><trkpt lat="41.874807888209325" lon="12.873698939274583"><ele>403.00000000000006</ele><time>2026-04-04T09:14:52.999Z</time></trkpt><trkpt lat="41.874846210485615" lon="12.873590012789677"><ele>403.0</ele><time>2026-04-04T09:14:53.999Z</time></trkpt><trkpt lat="41.87488807198737" lon="12.873478626370554"><ele>403.0</ele><time>2026-04-04T09:14:54.999Z</time></trkpt><trkpt lat="41.87492758078034" lon="12.873381898629997"><ele>403.0</ele><time>2026-04-04T09:14:55.999Z</time></trkpt><trkpt lat="41.874966542157416" lon="12.873307343379471"><ele>403.00000000000006</ele><time>2026-04-04T09:14:56.999Z</time></trkpt><trkpt lat="41.87502799891144" lon="12.873236760970784"><ele>403.0</ele><time>2026-04-04T09:14:57.999Z</time></trkpt><trkpt lat="41.87510711074887" lon="12.873166831363019"><ele>402.50000000000006</ele><time>2026-04-04T09:14:58.999Z</time></trkpt><trkpt lat="41.87518627256393" lon="12.87310103775898"><ele>402.0</ele><time>2026-04-04T09:14:59.999Z</time></trkpt><trkpt lat="41.87526934028163" lon="12.873048978031248"><ele>401.5</ele><time>2026-04-04T09:15:00.999Z</time></trkpt><trkpt lat="41.875356649659786" lon="12.87301766709351"><ele>401.0</ele><time>2026-04-04T09:15:01.999Z</time></trkpt><trkpt lat="41.87543754833072" lon="12.872978634388309"><ele>400.50000000000006</ele><time>2026-04-04T09:15:02.999Z</time></trkpt><trkpt lat="41.87551828347468" lon="12.872945427319392"><ele>400.0</ele><time>2026-04-04T09:15:03.999Z</time></trkpt><trkpt lat="41.87560533168161" lon="12.87291692095876"><ele>400.00000000000006</ele><time>2026-04-04T09:15:04.999Z</time></trkpt><trkpt lat="41.87568802474445" lon="12.872886050610933"><ele>400.0</ele><time>2026-04-04T09:15:05.999Z</time></trkpt><trkpt lat="41.87576532787079" lon="12.87283628237055"><ele>400.0</ele><time>2026-04-04T09:15:06.999Z</time></trkpt><trkpt lat="41.8758462877345" lon="12.872787188655389"><ele>400.0</ele><time>2026-04-04T09:15:07.999Z</time></trkpt><trkpt lat="41.87592550769675" lon="12.872740931615878"><ele>400.00000000000006</ele><time>2026-04-04T09:15:08.999Z</time></trkpt><trkpt lat="41.8760054975592" lon="12.872704437079278"><ele>400.0</ele><time>2026-04-04T09:15:09.999Z</time></trkpt><trkpt lat="41.87607771772765" lon="12.872663406875857"><ele>401.0</ele><time>2026-04-04T09:15:10.999Z</time></trkpt><trkpt lat="41.87623503035595" lon="12.87260961015572"><ele>402.0</ele><time>2026-04-04T09:15:12.999Z</time></trkpt><trkpt lat="41.876328632426" lon="12.87257486411435"><ele>403.0</ele><time>2026-04-04T09:15:13.999Z</time></trkpt><trkpt lat="41.8763918722332" lon="12.872504284850036"><ele>404.0</ele><time>2026-04-04T09:15:14.999Z</time></trkpt><trkpt lat="41.87645441478626" lon="12.872452807984022"><ele>405.0</ele><time>2026-04-04T09:15:15.999Z</time></trkpt><trkpt lat="41.876514632874716" lon="12.872403244279566"><ele>405.0</ele><time>2026-04-04T09:15:16.999Z</time></trkpt><trkpt lat="41.87665219312693" lon="12.87252327942933"><ele>405.0</ele><time>2026-04-04T09:15:17.999Z</time></trkpt><trkpt lat="41.87672972681047" lon="12.872511580767151"><ele>405.0</ele><time>2026-04-04T09:15:18.999Z</time></trkpt><trkpt lat="41.87679311608128" lon="12.872482158482592"><ele>405.0</ele><time>2026-04-04T09:15:19.999Z</time></trkpt><trkpt lat="41.87684613800599" lon="12.872429352442722"><ele>405.0</ele><time>2026-04-04T09:15:20.999Z</time></trkpt><trkpt lat="41.87689772761265" lon="12.872373690080833"><ele>405.0</ele><time>2026-04-04T09:15:21.999Z</time></trkpt><trkpt lat="41.87695708890484" lon="12.872239825453802"><ele>407.1666666666667</ele><time>2026-04-04T09:15:23.999Z</time></trkpt><trkpt lat="41.877005161026695" lon="12.872141343365287"><ele>409.33333333333337</ele><time>2026-04-04T09:15:25.999Z</time></trkpt><trkpt lat="41.87705045035451" lon="12.872070748232268"><ele>411.5</ele><time>2026-04-04T09:15:27.999Z</time></trkpt><trkpt lat="41.87711646666762" lon="12.871979430150718"><ele>413.6666666666667</ele><time>2026-04-04T09:15:29.999Z</time></trkpt><trkpt lat="41.87719073934161" lon="12.871889635382038"><ele>415.83333333333337</ele><time>2026-04-04T09:15:31.999Z</time></trkpt><trkpt lat="41.8772550625258" lon="12.87180626736173"><ele>418.0</ele><time>2026-04-04T09:15:33.999Z</time></trkpt><trkpt lat="41.877319933141784" lon="12.871741234772525"><ele>418.00000000000006</ele><time>2026-04-04T09:15:35.999Z</time></trkpt><trkpt lat="41.8774005236293" lon="12.871682194561767"><ele>418.0</ele><time>2026-04-04T09:15:37.999Z</time></trkpt><trkpt lat="41.87747302351098" lon="12.871618671034886"><ele>418.0</ele><time>2026-04-04T09:15:39.999Z</time></trkpt><trkpt lat="41.87752811328955" lon="12.8715639294941"><ele>418.0</ele><time>2026-04-04T09:15:40.999Z</time></trkpt><trkpt lat="41.877581670700046" lon="12.871505470748806"><ele>418.00000000000006</ele><time>2026-04-04T09:15:41.999Z</time></trkpt><trkpt lat="41.87764167182312" lon="12.871453398740297"><ele>418.0</ele><time>2026-04-04T09:15:42.999Z</time></trkpt><trkpt lat="41.87770625324764" lon="12.871407427857536"><ele>420.00000000000006</ele><time>2026-04-04T09:15:43.999Z</time></trkpt><trkpt lat="41.877775111764734" lon="12.871360867908882"><ele>422.0</ele><time>2026-04-04T09:15:44.999Z</time></trkpt><trkpt lat="41.87783354349942" lon="12.871299829571251"><ele>424.0</ele><time>2026-04-04T09:15:45.999Z</time></trkpt><trkpt lat="41.87789274486919" lon="12.871252301165566"><ele>426.0</ele><time>2026-04-04T09:15:46.999Z</time></trkpt><trkpt lat="41.87794620496705" lon="12.871198912537357"><ele>428.00000000000006</ele><time>2026-04-04T09:15:47.999Z</time></trkpt><trkpt lat="41.877996766126614" lon="12.871143345787072"><ele>430.0</ele><time>2026-04-04T09:15:48.999Z</time></trkpt><trkpt lat="41.878098254985716" lon="12.871054078656492"><ele>430.00000000000006</ele><time>2026-04-04T09:15:50.999Z</time></trkpt><trkpt lat="41.878162439036124" lon="12.871009407834794"><ele>430.0</ele><time>2026-04-04T09:15:51.999Z</time></trkpt><trkpt lat="41.878231624125455" lon="12.870964677533646"><ele>430.0</ele><time>2026-04-04T09:15:52.999Z</time></trkpt><trkpt lat="41.878311816363976" lon="12.870938387690506"><ele>430.0</ele><time>2026-04-04T09:15:53.999Z</time></trkpt><trkpt lat="41.87838029927141" lon="12.87091316716262"><ele>430.00000000000006</ele><time>2026-04-04T09:15:54.999Z</time></trkpt><trkpt lat="41.878443466025544" lon="12.870894570555775"><ele>430.0</ele><time>2026-04-04T09:15:55.999Z</time></trkpt><trkpt lat="41.878548890995994" lon="12.870883337660695"><ele>427.33333333333337</ele><time>2026-04-04T09:15:57.999Z</time></trkpt><trkpt lat="41.87861290473571" lon="12.87088021189936"><ele>424.6666666666667</ele><time>2026-04-04T09:15:58.999Z</time></trkpt><trkpt lat="41.87873505193384" lon="12.870866530921411"><ele>422.0</ele><time>2026-04-04T09:16:00.999Z</time></trkpt><trkpt lat="41.87885471779999" lon="12.870862892799652"><ele>419.33333333333337</ele><time>2026-04-04T09:16:03Z</time></trkpt><trkpt lat="41.878920321188986" lon="12.870877308245618"><ele>416.6666666666667</ele><time>2026-04-04T09:16:04Z</time></trkpt><trkpt lat="41.87898286574288" lon="12.870899491175914"><ele>414.0</ele><time>2026-04-04T09:16:05Z</time></trkpt><trkpt lat="41.87905381080281" lon="12.870914390582016"><ele>414.0</ele><time>2026-04-04T09:16:06Z</time></trkpt><trkpt lat="41.8791213505858" lon="12.870931186918764"><ele>414.0</ele><time>2026-04-04T09:16:07Z</time></trkpt><trkpt lat="41.87919795258447" lon="12.870938937762297"><ele>414.0</ele><time>2026-04-04T09:16:08Z</time></trkpt><trkpt lat="41.87926597786987" lon="12.870945608070995"><ele>414.0</ele><time>2026-04-04T09:16:09Z</time></trkpt><trkpt lat="41.87938402482323" lon="12.87096235083767"><ele>414.0</ele><time>2026-04-04T09:16:11Z</time></trkpt><trkpt lat="41.87950458076565" lon="12.870989185621545"><ele>414.2</ele><time>2026-04-04T09:16:13Z</time></trkpt><trkpt lat="41.87959710565109" lon="12.87100096923227"><ele>414.4</ele><time>2026-04-04T09:16:15Z</time></trkpt><trkpt lat="41.87969171080702" lon="12.871028561699141"><ele>414.6</ele><time>2026-04-04T09:16:17Z</time></trkpt><trkpt lat="41.87978154146202" lon="12.871057177464515"><ele>414.8</ele><time>2026-04-04T09:16:19Z</time></trkpt><trkpt lat="41.87988502537276" lon="12.871107900833184"><ele>415.0</ele><time>2026-04-04T09:16:21Z</time></trkpt><trkpt lat="41.87995883199719" lon="12.871120876777612"><ele>415.0</ele><time>2026-04-04T09:16:22Z</time></trkpt><trkpt lat="41.88003671113658" lon="12.871235059524981"><ele>415.0</ele><time>2026-04-04T09:16:24Z</time></trkpt><trkpt lat="41.88008438299878" lon="12.871303990865554"><ele>415.0</ele><time>2026-04-04T09:16:25Z</time></trkpt><trkpt lat="41.88015417627843" lon="12.871437397602744"><ele>415.0</ele><time>2026-04-04T09:16:27Z</time></trkpt><trkpt lat="41.88021702360757" lon="12.87155991809384"><ele>415.0</ele><time>2026-04-04T09:16:29Z</time></trkpt><trkpt lat="41.8803079351561" lon="12.871638763388912"><ele>413.4</ele><time>2026-04-04T09:16:31Z</time></trkpt><trkpt lat="41.88040834640964" lon="12.871683091167691"><ele>411.8</ele><time>2026-04-04T09:16:33Z</time></trkpt><trkpt lat="41.88052021997368" lon="12.871690070456959"><ele>410.20000000000005</ele><time>2026-04-04T09:16:35Z</time></trkpt><trkpt lat="41.880578618381065" lon="12.871654731224242"><ele>408.6</ele><time>2026-04-04T09:16:36Z</time></trkpt><trkpt lat="41.88066088399913" lon="12.871540581257111"><ele>407.0</ele><time>2026-04-04T09:16:38Z</time></trkpt><trkpt lat="41.88075881894873" lon="12.871487821344552"><ele>407.0</ele><time>2026-04-04T09:16:40Z</time></trkpt><trkpt lat="41.880869721264176" lon="12.87149231136477"><ele>407.0</ele><time>2026-04-04T09:16:42Z</time></trkpt><trkpt lat="41.88096223226639" lon="12.871508484143728"><ele>407.0</ele><time>2026-04-04T09:16:44Z</time></trkpt><trkpt lat="41.88107389457504" lon="12.871507090363224"><ele>407.0</ele><time>2026-04-04T09:16:46Z</time></trkpt><trkpt lat="41.88119524090822" lon="12.87153426413711"><ele>407.0</ele><time>2026-04-04T09:16:48Z</time></trkpt><trkpt lat="41.88125873696707" lon="12.871552442344827"><ele>407.6</ele><time>2026-04-04T09:16:49Z</time></trkpt><trkpt lat="41.88137959504379" lon="12.87155430510275"><ele>408.20000000000005</ele><time>2026-04-04T09:16:51Z</time></trkpt><trkpt lat="41.88148207180357" lon="12.871553393284145"><ele>408.8</ele><time>2026-04-04T09:16:52.999Z</time></trkpt><trkpt lat="41.88158244326063" lon="12.871538177701543"><ele>409.4</ele><time>2026-04-04T09:16:54.999Z</time></trkpt><trkpt lat="41.88170145642846" lon="12.871527237655847"><ele>410.0</ele><time>2026-04-04T09:16:56.999Z</time></trkpt><trkpt lat="41.881792415184435" lon="12.871541881431304"><ele>407.8</ele><time>2026-04-04T09:16:58.999Z</time></trkpt><trkpt lat="41.881869811748324" lon="12.871610676140145"><ele>405.6</ele><time>2026-04-04T09:17:00.999Z</time></trkpt><trkpt lat="41.88195162223426" lon="12.871677121661637"><ele>403.4</ele><time>2026-04-04T09:17:02.999Z</time></trkpt><trkpt lat="41.88203562249719" lon="12.871702907593383"><ele>401.2</ele><time>2026-04-04T09:17:04.999Z</time></trkpt><trkpt lat="41.88213358964272" lon="12.871717114632744"><ele>399.0</ele><time>2026-04-04T09:17:06.999Z</time></trkpt><trkpt lat="41.88222665495032" lon="12.871769985367875"><ele>401.6</ele><time>2026-04-04T09:17:08.999Z</time></trkpt><trkpt lat="41.88229870440205" lon="12.871848779257341"><ele>404.2</ele><time>2026-04-04T09:17:10.999Z</time></trkpt><trkpt lat="41.882360321689035" lon="12.871947015909251"><ele>406.8</ele><time>2026-04-04T09:17:12.999Z</time></trkpt><trkpt lat="41.88243137796389" lon="12.872036726493668"><ele>409.40000000000003</ele><time>2026-04-04T09:17:14.999Z</time></trkpt><trkpt lat="41.88250735345293" lon="12.872126984669471"><ele>412.0</ele><time>2026-04-04T09:17:16.999Z</time></trkpt><trkpt lat="41.882596223299124" lon="12.872214002304853"><ele>407.6</ele><time>2026-04-04T09:17:18.999Z</time></trkpt><trkpt lat="41.882678788061106" lon="12.872290183352781"><ele>403.20000000000005</ele><time>2026-04-04T09:17:20.999Z</time></trkpt><trkpt lat="41.88275889322459" lon="12.87236628763372"><ele>398.8</ele><time>2026-04-04T09:17:22.999Z</time></trkpt><trkpt lat="41.88285257644059" lon="12.872446734303571"><ele>394.4</ele><time>2026-04-04T09:17:24.999Z</time></trkpt><trkpt lat="41.882968703928164" lon="12.872493375546869"><ele>390.0</ele><time>2026-04-04T09:17:26.999Z</time></trkpt><trkpt lat="41.883066752402826" lon="12.872542663426275"><ele>390.0</ele><time>2026-04-04T09:17:28.999Z</time></trkpt><trkpt lat="41.883156812291695" lon="12.872584187655713"><ele>390.0</ele><time>2026-04-04T09:17:30.999Z</time></trkpt><trkpt lat="41.88321457437026" lon="12.87265801246163"><ele>390.0</ele><time>2026-04-04T09:17:32.999Z</time></trkpt><trkpt lat="41.883290734509124" lon="12.872738395833586"><ele>390.0</ele><time>2026-04-04T09:17:34.999Z</time></trkpt><trkpt lat="41.88336054746652" lon="12.87279128668427"><ele>390.0</ele><time>2026-04-04T09:17:36.999Z</time></trkpt><trkpt lat="41.88340272024893" lon="12.872882487314152"><ele>390.0</ele><time>2026-04-04T09:17:38.999Z</time></trkpt><trkpt lat="41.88344291048913" lon="12.872999140252464"><ele>390.2</ele><time>2026-04-04T09:17:40.999Z</time></trkpt><trkpt lat="41.88347183666046" lon="12.873126910639726"><ele>390.4</ele><time>2026-04-04T09:17:42.999Z</time></trkpt><trkpt lat="41.88349244416692" lon="12.873277043441833"><ele>390.6</ele><time>2026-04-04T09:17:44.999Z</time></trkpt><trkpt lat="41.883523224993816" lon="12.873392183898172"><ele>390.8</ele><time>2026-04-04T09:17:46.999Z</time></trkpt><trkpt lat="41.88360555879661" lon="12.873385287463492"><ele>391.0</ele><time>2026-04-04T09:17:48.999Z</time></trkpt><trkpt lat="41.883694023750216" lon="12.873383431391979"><ele>391.0</ele><time>2026-04-04T09:17:50.999Z</time></trkpt><trkpt lat="41.883793129237816" lon="12.873361440283789"><ele>391.0</ele><time>2026-04-04T09:17:52.999Z</time></trkpt><trkpt lat="41.883888778102715" lon="12.87334601198469"><ele>391.0</ele><time>2026-04-04T09:17:54.999Z</time></trkpt><trkpt lat="41.88398281052173" lon="12.873278140445471"><ele>391.0</ele><time>2026-04-04T09:17:56.999Z</time></trkpt><trkpt lat="41.88407321212244" lon="12.87320755451371"><ele>391.0</ele><time>2026-04-04T09:17:58.999Z</time></trkpt><trkpt lat="41.88416247209359" lon="12.873138465685688"><ele>391.00000000000006</ele><time>2026-04-04T09:18:00.999Z</time></trkpt><trkpt lat="41.884261962009624" lon="12.87304787789263"><ele>391.0</ele><time>2026-04-04T09:18:02.999Z</time></trkpt><trkpt lat="41.884323844497224" lon="12.873019520478785"><ele>391.0</ele><time>2026-04-04T09:18:03.999Z</time></trkpt><trkpt lat="41.88438202286829" lon="12.872987133388566"><ele>391.0</ele><time>2026-04-04T09:18:04.999Z</time></trkpt><trkpt lat="41.884447680745474" lon="12.872961549299863"><ele>391.00000000000006</ele><time>2026-04-04T09:18:05.999Z</time></trkpt><trkpt lat="41.884513544539054" lon="12.872944687601217"><ele>391.0</ele><time>2026-04-04T09:18:06.999Z</time></trkpt><trkpt lat="41.884628363068636" lon="12.87292827236164"><ele>388.6</ele><time>2026-04-04T09:18:09Z</time></trkpt><trkpt lat="41.884726558418514" lon="12.872890142547545"><ele>386.20000000000005</ele><time>2026-04-04T09:18:11Z</time></trkpt><trkpt lat="41.884837179732116" lon="12.872940761691579"><ele>383.79999999999995</ele><time>2026-04-04T09:18:13Z</time></trkpt><trkpt lat="41.88494640367541" lon="12.872983895479207"><ele>381.4</ele><time>2026-04-04T09:18:15Z</time></trkpt><trkpt lat="41.88501081628399" lon="12.873014658099642"><ele>379.0</ele><time>2026-04-04T09:18:16Z</time></trkpt><trkpt lat="41.88511501995402" lon="12.87305672478559"><ele>375.5</ele><time>2026-04-04T09:18:18Z</time></trkpt><trkpt lat="41.88522789470534" lon="12.873085235994978"><ele>372.0</ele><time>2026-04-04T09:18:20Z</time></trkpt><trkpt lat="41.885300975413976" lon="12.87309104276061"><ele>368.5</ele><time>2026-04-04T09:18:21Z</time></trkpt><trkpt lat="41.88536624379625" lon="12.873107784582752"><ele>365.0</ele><time>2026-04-04T09:18:22Z</time></trkpt><trkpt lat="41.885441357674075" lon="12.873118097915581"><ele>361.5</ele><time>2026-04-04T09:18:23Z</time></trkpt><trkpt lat="41.885512814065876" lon="12.873110173654561"><ele>358.0</ele><time>2026-04-04T09:18:24Z</time></trkpt><trkpt lat="41.88563949393563" lon="12.873125639958293"><ele>358.0</ele><time>2026-04-04T09:18:26Z</time></trkpt><trkpt lat="41.88570966953286" lon="12.873133866780249"><ele>358.0</ele><time>2026-04-04T09:18:27Z</time></trkpt><trkpt lat="41.88583179192966" lon="12.873156756376263"><ele>358.0</ele><time>2026-04-04T09:18:29Z</time></trkpt><trkpt lat="41.885947526474055" lon="12.87320226651078"><ele>358.0</ele><time>2026-04-04T09:18:31Z</time></trkpt><trkpt lat="41.886010326027545" lon="12.873230834479862"><ele>358.0</ele><time>2026-04-04T09:18:32Z</time></trkpt><trkpt lat="41.88612888993245" lon="12.873268292468707"><ele>355.2</ele><time>2026-04-04T09:18:34Z</time></trkpt><trkpt lat="41.88623473189943" lon="12.873279219038753"><ele>352.4</ele><time>2026-04-04T09:18:36Z</time></trkpt><trkpt lat="41.88635654994205" lon="12.873281139798179"><ele>349.59999999999997</ele><time>2026-04-04T09:18:38Z</time></trkpt><trkpt lat="41.88646216495614" lon="12.873303869623808"><ele>346.79999999999995</ele><time>2026-04-04T09:18:40Z</time></trkpt><trkpt lat="41.88656511201359" lon="12.87334746610744"><ele>344.0</ele><time>2026-04-04T09:18:42Z</time></trkpt><trkpt lat="41.88667108916707" lon="12.873402656830164"><ele>344.0</ele><time>2026-04-04T09:18:44Z</time></trkpt><trkpt lat="41.88673476551739" lon="12.873424953458313"><ele>344.0</ele><time>2026-04-04T09:18:45Z</time></trkpt><trkpt lat="41.886799305979594" lon="12.873435315637847"><ele>344.0</ele><time>2026-04-04T09:18:46Z</time></trkpt><trkpt lat="41.88687092528444" lon="12.873434960489003"><ele>344.0</ele><time>2026-04-04T09:18:47Z</time></trkpt><trkpt lat="41.886942872725875" lon="12.873435206122108"><ele>344.0</ele><time>2026-04-04T09:18:48Z</time></trkpt><trkpt lat="41.88704433487028" lon="12.873432864500854"><ele>344.0</ele><time>2026-04-04T09:18:50Z</time></trkpt><trkpt lat="41.88716430823598" lon="12.873457097740662"><ele>344.79999999999995</ele><time>2026-04-04T09:18:52Z</time></trkpt><trkpt lat="41.88727335692901" lon="12.873468844743808"><ele>345.59999999999997</ele><time>2026-04-04T09:18:54Z</time></trkpt><trkpt lat="41.88738356669924" lon="12.87343192847813"><ele>346.4</ele><time>2026-04-04T09:18:56Z</time></trkpt><trkpt lat="41.887458090988716" lon="12.873346666433308"><ele>347.2</ele><time>2026-04-04T09:18:58Z</time></trkpt><trkpt lat="41.887520450956195" lon="12.873269557055236"><ele>348.0</ele><time>2026-04-04T09:19:00Z</time></trkpt><trkpt lat="41.88759815111716" lon="12.873232402019667"><ele>348.0</ele><time>2026-04-04T09:19:02Z</time></trkpt><trkpt lat="41.88767175421317" lon="12.873212309405323"><ele>348.0</ele><time>2026-04-04T09:19:05Z</time></trkpt><trkpt lat="41.88770438996417" lon="12.873297037417686"><ele>348.0</ele><time>2026-04-04T09:19:07.999Z</time></trkpt><trkpt lat="41.88772584045023" lon="12.873391831230695"><ele>348.0</ele><time>2026-04-04T09:19:10.999Z</time></trkpt><trkpt lat="41.88776513854785" lon="12.873494049693917"><ele>348.0</ele><time>2026-04-04T09:19:13.999Z</time></trkpt><trkpt lat="41.88780976521168" lon="12.87358975344207"><ele>348.0</ele><time>2026-04-04T09:19:15.999Z</time></trkpt><trkpt lat="41.8878677344184" lon="12.873691752444326"><ele>348.2</ele><time>2026-04-04T09:19:17.999Z</time></trkpt><trkpt lat="41.887940698058664" lon="12.873810117620115"><ele>348.4</ele><time>2026-04-04T09:19:19.999Z</time></trkpt><trkpt lat="41.88803266850304" lon="12.873908525183758"><ele>348.59999999999997</ele><time>2026-04-04T09:19:21.999Z</time></trkpt><trkpt lat="41.88815172643509" lon="12.873955551448674"><ele>348.79999999999995</ele><time>2026-04-04T09:19:23.999Z</time></trkpt><trkpt lat="41.88821635729869" lon="12.873966105835416"><ele>349.0</ele><time>2026-04-04T09:19:24.999Z</time></trkpt><trkpt lat="41.88827863196047" lon="12.873983128389009"><ele>349.0</ele><time>2026-04-04T09:19:25.999Z</time></trkpt><trkpt lat="41.888345978925784" lon="12.873981937132461"><ele>349.0</ele><time>2026-04-04T09:19:26.999Z</time></trkpt><trkpt lat="41.88840896838663" lon="12.873991846331698"><ele>349.0</ele><time>2026-04-04T09:19:27.999Z</time></trkpt><trkpt lat="41.888479354917195" lon="12.874001193533594"><ele>349.0</ele><time>2026-04-04T09:19:28.999Z</time></trkpt><trkpt lat="41.88859877465875" lon="12.87398343107718"><ele>349.0</ele><time>2026-04-04T09:19:30.999Z</time></trkpt><trkpt lat="41.88867440912041" lon="12.873915042224333"><ele>349.0</ele><time>2026-04-04T09:19:32.999Z</time></trkpt><trkpt lat="41.88870096297477" lon="12.873837745044973"><ele>350.2</ele><time>2026-04-04T09:19:34.999Z</time></trkpt><trkpt lat="41.88869824669951" lon="12.873684811139656"><ele>351.4</ele><time>2026-04-04T09:19:36.999Z</time></trkpt><trkpt lat="41.888740985000524" lon="12.873563811124988"><ele>352.6</ele><time>2026-04-04T09:19:38.999Z</time></trkpt><trkpt lat="41.88884605581794" lon="12.87351885174131"><ele>353.8</ele><time>2026-04-04T09:19:40.999Z</time></trkpt><trkpt lat="41.888944724055904" lon="12.873556267982892"><ele>355.0</ele><time>2026-04-04T09:19:42.999Z</time></trkpt><trkpt lat="41.8890119846765" lon="12.873565649256994"><ele>355.0</ele><time>2026-04-04T09:19:43.999Z</time></trkpt><trkpt lat="41.889128869290815" lon="12.87356743284874"><ele>355.0</ele><time>2026-04-04T09:19:45.999Z</time></trkpt><trkpt lat="41.88922509031344" lon="12.873586138760013"><ele>355.0</ele><time>2026-04-04T09:19:47.999Z</time></trkpt><trkpt lat="41.889326572866715" lon="12.873685601271333"><ele>355.0</ele><time>2026-04-04T09:19:49.999Z</time></trkpt><trkpt lat="41.88942211596999" lon="12.87378230889597"><ele>391.0</ele><time>2026-04-04T09:19:51.999Z</time></trkpt><trkpt lat="41.88950508909953" lon="12.873897295878436"><ele>391.0</ele><time>2026-04-04T09:19:53.999Z</time></trkpt><trkpt lat="41.889549168317224" lon="12.874049403986186"><ele>391.0</ele><time>2026-04-04T09:19:55.999Z</time></trkpt><trkpt lat="41.889585647534986" lon="12.87419253461862"><ele>391.0</ele><time>2026-04-04T09:19:57.999Z</time></trkpt><trkpt lat="41.88959242261785" lon="12.874294507906805"><ele>388.0</ele><time>2026-04-04T09:19:59.999Z</time></trkpt></trkseg></trk></gpx>